createdAt,value
2018-08-30T00:04:16.079Z,24.6
2018-08-30T00:09:14.431Z,24.6
2018-08-30T00:14:12.416Z,24.5
2018-08-30T00:19:10.281Z,24.5
2018-08-30T00:24:08.560Z,24.5
2018-08-30T00:29:06.992Z,24.2
2018-08-30T00:34:05.441Z,24.4
2018-08-30T00:39:03.883Z,24.3
2018-08-30T00:44:02.326Z,24.3
2018-08-30T00:49:00.500Z,24.3
2018-08-30T00:53:58.879Z,24.2
2018-08-30T00:58:56.580Z,23.8
2018-08-30T01:03:55.099Z,24.1
2018-08-30T01:08:53.392Z,24.1
2018-08-30T01:13:51.727Z,24.1
2018-08-30T01:18:49.974Z,24
2018-08-30T01:23:48.429Z,24
2018-08-30T01:28:46.798Z,23.5
2018-08-30T01:33:45.157Z,23.9
2018-08-30T01:38:43.401Z,23.9
2018-08-30T01:43:41.474Z,23.8
2018-08-30T01:48:39.876Z,23.4
2018-08-30T01:53:38.247Z,23.8
2018-08-30T01:58:36.679Z,23.2
2018-08-30T02:03:35.198Z,23.7
2018-08-30T02:08:33.561Z,23.2
2018-08-30T02:13:31.968Z,23.6
2018-08-30T02:18:30.381Z,23.1
2018-08-30T02:23:28.883Z,23.5
2018-08-30T02:28:27.336Z,23.1
2018-08-30T02:33:25.647Z,23.5
2018-08-30T02:38:24.005Z,23
2018-08-30T02:43:22.238Z,23.4
2018-08-30T02:48:20.657Z,22.9
2018-08-30T02:53:19.073Z,23.3
2018-08-30T02:58:17.404Z,22.8
2018-08-30T03:03:15.822Z,23.2
2018-08-30T03:08:14.073Z,22.7
2018-08-30T03:13:12.302Z,23.2
2018-08-30T03:18:10.199Z,22.7
2018-08-30T03:23:08.656Z,22.6
2018-08-30T03:28:07.118Z,22.6
2018-08-30T03:33:05.483Z,22.6
2018-08-30T03:38:03.967Z,22.5
2018-08-30T03:43:01.809Z,22.5
2018-08-30T03:48:00.052Z,22.5
2018-08-30T03:52:58.410Z,22.4
2018-08-30T03:57:56.875Z,22.4
2018-08-30T04:02:55.228Z,22.8
2018-08-30T04:07:53.184Z,22.3
2018-08-30T04:12:51.576Z,22.3
2018-08-30T04:17:49.983Z,22.3
2018-08-30T04:22:48.417Z,22.2
2018-08-30T04:27:46.548Z,22.2
2018-08-30T04:32:44.891Z,22.6
2018-08-30T04:37:43.108Z,22.4
2018-08-30T04:42:41.668Z,22.6
2018-08-30T04:47:40.127Z,22.6
2018-08-30T04:52:38.013Z,22.6
2018-08-30T04:57:36.484Z,22.1
2018-08-30T05:02:34.702Z,22.1
2018-08-30T05:07:32.895Z,22.1
2018-08-30T05:12:31.455Z,22.3
2018-08-30T05:17:30.238Z,22.1
2018-08-30T05:22:28.651Z,22.1
2018-08-30T05:27:26.962Z,22.1
2018-08-30T05:32:25.443Z,22.5
2018-08-30T05:37:23.819Z,21.8
2018-08-30T05:42:22.089Z,22.4
2018-08-30T05:47:20.617Z,22.4
2018-08-30T05:52:18.956Z,22.4
2018-08-30T05:57:17.447Z,22.4
2018-08-30T06:02:15.997Z,21.9
2018-08-30T06:07:14.494Z,22.4
2018-08-30T06:12:13.085Z,21.9
2018-08-30T06:17:11.839Z,22.2
2018-08-30T06:22:09.975Z,22.2
2018-08-30T06:27:08.273Z,22
2018-08-30T06:32:06.676Z,22.4
2018-08-30T06:37:05.172Z,22.5
2018-08-30T06:42:03.594Z,22.5
2018-08-30T06:47:01.820Z,22.1
2018-08-30T06:52:00.176Z,22.5
2018-08-30T06:56:58.726Z,22.5
2018-08-30T07:01:57.220Z,22.6
2018-08-30T07:06:55.707Z,22.5
2018-08-30T07:11:54.263Z,22.6
2018-08-30T07:16:52.709Z,22.2
2018-08-30T07:21:51.170Z,22.7
2018-08-30T07:26:49.706Z,22.3
2018-08-30T07:31:48.231Z,22.8
2018-08-30T07:36:46.723Z,22.4
2018-08-30T07:41:45.094Z,22.9
2018-08-30T07:46:43.568Z,22.9
2018-08-30T07:51:42.040Z,22.9
2018-08-30T07:56:40.544Z,22.5
2018-08-30T08:01:38.583Z,23
2018-08-30T08:06:37.216Z,22.6
2018-08-30T08:11:35.724Z,23.1
2018-08-30T08:16:33.996Z,23.2
2018-08-30T08:21:32.350Z,22.9
2018-08-30T08:26:30.875Z,22.9
2018-08-30T08:31:29.409Z,23.3
2018-08-30T08:36:27.939Z,23.4
2018-08-30T08:41:26.701Z,23.5
2018-08-30T08:46:25.280Z,23.5
2018-08-30T08:51:23.839Z,23.6
2018-08-30T08:56:22.160Z,23.6
2018-08-30T09:01:20.682Z,23.7
2018-08-30T09:06:19.497Z,23.3
2018-08-30T09:11:18.034Z,23.8
2018-08-30T09:16:16.461Z,23.9
2018-08-30T09:21:14.826Z,23.5
2018-08-30T09:26:13.439Z,24
2018-08-30T09:31:12.006Z,24.1
2018-08-30T09:36:10.453Z,24.1
2018-08-30T09:41:08.788Z,24.2
2018-08-30T09:46:07.233Z,24.3
2018-08-30T09:51:05.568Z,24.3
2018-08-30T09:56:04.143Z,24.4
2018-08-30T10:01:02.577Z,24.5
2018-08-30T10:06:01.261Z,24.5
2018-08-30T10:10:59.836Z,24.6
2018-08-30T10:15:58.384Z,24.7
2018-08-30T10:20:57.002Z,24.7
2018-08-30T10:25:55.447Z,24.8
2018-08-30T10:30:54.253Z,24.9
2018-08-30T10:35:52.613Z,25
2018-08-30T10:40:51.334Z,25
2018-08-30T10:45:49.867Z,25.1
2018-08-30T10:50:48.318Z,25.2
2018-08-30T10:55:46.689Z,25.3
2018-08-30T11:00:45.182Z,25.3
2018-08-30T11:05:44.490Z,25.4
2018-08-30T11:10:43.126Z,25.5
2018-08-30T11:15:41.765Z,25.5
2018-08-30T11:20:40.253Z,25.5
2018-08-30T11:25:38.744Z,25.7
2018-08-30T11:30:37.292Z,25.8
2018-08-30T11:35:35.729Z,25.7
2018-08-30T11:40:34.256Z,25.9
2018-08-30T11:45:34.735Z,26
2018-08-30T11:50:34.349Z,26.1
2018-08-30T11:55:32.757Z,26.2
2018-08-30T12:00:31.311Z,26.2
2018-08-30T12:05:29.693Z,26.3
2018-08-30T12:10:28.316Z,26.4
2018-08-30T12:15:27.176Z,26.5
2018-08-30T12:20:25.985Z,26.5
2018-08-30T12:25:24.812Z,26.6
2018-08-30T12:30:23.358Z,26.7
2018-08-30T12:35:22.614Z,26.8
2018-08-30T12:40:21.559Z,26.9
2018-08-30T12:45:20.706Z,27
2018-08-30T12:50:19.730Z,26.9
2018-08-30T12:55:18.601Z,27.1
2018-08-30T13:00:17.650Z,27.2
2018-08-30T13:05:16.818Z,27.3
2018-08-30T13:10:16.013Z,27.4
2018-08-30T13:15:15.310Z,27.5
2018-08-30T13:20:15.156Z,27.5
2018-08-30T13:25:14.220Z,27.6
2018-08-30T13:30:13.200Z,27.7
2018-08-30T13:35:13.053Z,27.8
2018-08-30T13:40:13.364Z,27.9
2018-08-30T13:45:12.758Z,28
2018-08-30T13:50:12.806Z,28
2018-08-30T13:55:12.440Z,28.1
2018-08-30T14:00:12.421Z,28.2
2018-08-30T14:05:12.571Z,28.3
2018-08-30T14:10:12.322Z,28.4
2018-08-30T14:15:12.198Z,28.5
2018-08-30T14:20:11.686Z,28.5
2018-08-30T14:25:10.309Z,28.5
2018-08-30T14:30:08.924Z,28.7
2018-08-30T14:35:07.439Z,28.8
2018-08-30T14:40:08.722Z,28.8
2018-08-30T14:45:07.366Z,28.9
2018-08-30T14:50:05.844Z,29
2018-08-30T14:55:04.371Z,29
2018-08-30T15:00:02.957Z,29.1
2018-08-30T15:05:01.599Z,29.2
2018-08-30T15:10:00.125Z,29.2
2018-08-30T15:14:58.607Z,29.3
2018-08-30T15:19:56.944Z,29.4
2018-08-30T15:24:55.836Z,29.4
2018-08-30T15:29:54.422Z,29.5
2018-08-30T15:34:52.922Z,29.5
2018-08-30T15:39:51.482Z,29.4
2018-08-30T15:44:50.122Z,29.6
2018-08-30T15:49:48.732Z,29.6
2018-08-30T15:54:47.385Z,29.6
2018-08-30T15:59:45.995Z,29.6
2018-08-30T16:04:44.456Z,29.7
2018-08-30T16:09:42.948Z,29.7
2018-08-30T16:14:41.514Z,29.7
2018-08-30T16:19:40.191Z,29.7
2018-08-30T16:24:38.535Z,29.7
2018-08-30T16:29:37.288Z,29.6
2018-08-30T16:34:35.836Z,29.6
2018-08-30T16:39:34.386Z,29.6
2018-08-30T16:44:32.874Z,29.6
2018-08-30T16:49:31.149Z,29.5
2018-08-30T16:54:29.776Z,29.5
2018-08-30T16:59:28.445Z,29.5
2018-08-30T17:04:27.499Z,29.5
2018-08-30T17:09:25.707Z,29.4
2018-08-30T17:14:24.260Z,29.4
2018-08-30T17:19:22.692Z,29.3
2018-08-30T17:24:21.610Z,28.9
2018-08-30T17:29:19.923Z,29.2
2018-08-30T17:34:18.417Z,29.1
2018-08-30T17:39:16.974Z,29.1
2018-08-30T17:44:15.049Z,29
2018-08-30T17:49:13.572Z,29
2018-08-30T17:54:12.171Z,29
2018-08-30T17:59:10.877Z,28.5
2018-08-30T18:04:09.411Z,28.8
2018-08-30T18:09:07.902Z,28.8
2018-08-30T18:14:06.744Z,28.7
2018-08-30T18:19:05.378Z,28.1
2018-08-30T18:24:03.895Z,28.6
2018-08-30T18:29:02.633Z,28.5
2018-08-30T18:34:01.077Z,28.5
2018-08-30T18:38:59.693Z,28.5
2018-08-30T18:43:58.366Z,28.4
2018-08-30T18:48:56.948Z,28.3
2018-08-30T18:53:55.348Z,28.3
2018-08-30T18:58:53.403Z,28.2
2018-08-30T19:03:51.979Z,28.2
2018-08-30T19:08:50.451Z,28.1
2018-08-30T19:13:48.855Z,28
2018-08-30T19:18:47.357Z,27.8
2018-08-30T19:23:45.878Z,27.9
2018-08-30T19:28:44.331Z,27.7
2018-08-30T19:33:43.126Z,27.8
2018-08-30T19:38:41.524Z,27.8
2018-08-30T19:43:40.102Z,27.7
2018-08-30T19:48:38.659Z,27.7
2018-08-30T19:53:36.967Z,27.6
2018-08-30T19:58:35.580Z,27.5
2018-08-30T20:03:34.164Z,27.5
2018-08-30T20:08:32.453Z,27.4
2018-08-30T20:13:30.812Z,27.4
2018-08-30T20:18:29.330Z,27.3
2018-08-30T20:23:27.964Z,27.3
2018-08-30T20:28:26.422Z,27.2
2018-08-30T20:33:24.652Z,27.2
2018-08-30T20:38:23.052Z,26.9
2018-08-30T20:43:21.635Z,27
2018-08-30T20:48:19.728Z,27
2018-08-30T20:53:18.118Z,27
2018-08-30T20:58:16.615Z,26.9
2018-08-30T21:03:14.638Z,26.8
2018-08-30T21:08:12.959Z,26.8
2018-08-30T21:13:11.485Z,26.7
2018-08-30T21:18:09.797Z,26.7
2018-08-30T21:23:07.900Z,26.6
2018-08-30T21:28:06.403Z,26.6
2018-08-30T21:33:04.729Z,26.5
2018-08-30T21:38:03.231Z,26.5
2018-08-30T21:43:01.675Z,26.5
2018-08-30T21:48:00.213Z,26.4
2018-08-30T21:52:58.459Z,26.4
2018-08-30T21:57:56.881Z,26.3
2018-08-30T22:02:55.260Z,26.2
2018-08-30T22:07:53.602Z,26.2
2018-08-30T22:12:52.142Z,26.2
2018-08-30T22:17:50.612Z,26.1
2018-08-30T22:22:49.019Z,26.1
2018-08-30T22:27:47.454Z,26
2018-08-30T22:32:45.891Z,26
2018-08-30T22:37:44.150Z,25.5
2018-08-30T22:42:42.602Z,25.9
2018-08-30T22:47:40.977Z,25.9
2018-08-30T22:52:39.494Z,25.8
2018-08-30T22:57:37.960Z,25.8
2018-08-30T23:02:36.378Z,25.7
2018-08-30T23:07:34.786Z,25.5
2018-08-30T23:12:33.334Z,25.6
2018-08-30T23:17:31.713Z,25.6
2018-08-30T23:22:30.218Z,25.5
2018-08-30T23:27:28.680Z,25.5
2018-08-30T23:32:27.171Z,25.4
2018-08-30T23:37:25.670Z,25.4
2018-08-30T23:42:23.507Z,25.4
2018-08-30T23:47:26.045Z,25.3
2018-08-30T23:52:23.330Z,25.3
2018-08-30T23:57:21.778Z,25.2
